Time;durP1;ratioP1;P1;durP2;ratioP2;P2;SDS_P1;SDS_P2;PMS_P1;PMS_P2;Temp;Humidity;BMP_temperature;BMP_pressure;BME280_temperature;BME280_humidity;BME280_pressure;Samples;Min_cycle;Max_cycle;Signal;HPM_P1;HPM_P2
2022/05/15 00:01:47;;;;;;;;;;;;;;;;;;4981327;28;19921;-66
2022/05/15 00:04:12;;;;;;;;;;;;;;;;;;5011169;28;19913;-66
2022/05/15 00:06:37;;;;;;;;;;;;;;;;;;5011126;28;19917;-66
2022/05/15 00:09:03;;;;;;;;;;;;;;;;;;5010152;28;19913;-66
2022/05/15 00:11:29;;;;;;;;;;;;;;;;;;4997297;28;20000;-66
2022/05/15 00:13:56;;;;;;;;;;;;;;;;;;5010841;28;19964;-64
2022/05/15 00:16:22;;;;;;;;;;;;;;;;;;5011129;28;19917;-66
2022/05/15 00:18:49;;;;;;;;;;;;;;;;;;5008834;28;19924;-67
2022/05/15 00:21:15;;;;;;;;;;;;;;;;;;4998427;28;19914;-67
2022/05/15 00:23:41;;;;;;;;;;;;;;;;;;5007501;28;19921;-65
2022/05/15 00:26:06;;;;;;;;;;;;;;;;;;5010339;28;19920;-66
2022/05/15 00:28:31;;;;;;;;;;;;;;;;;;4990164;28;19914;-66
2022/05/15 00:30:57;;;;;;;;;;;;;;;;;;4997926;28;19996;-66
2022/05/15 00:33:23;;;;;;;;;;;;;;;;;;5007688;28;19917;-66
2022/05/15 00:35:50;;;;;;;;;;;;;;;;;;4992938;28;19921;-66
2022/05/15 00:38:15;;;;;;;;;;;;;;;;;;5001142;28;19917;-65
2022/05/15 00:40:43;;;;;;;;;;;;;;;;;;4986403;28;19913;-66
2022/05/15 00:43:10;;;;;;;;;;;;;;;;;;4992730;28;20040;-67
2022/05/15 00:45:36;;;;;;;;;;;;;;;;;;5010613;28;20365;-66
2022/05/15 00:48:01;;;;;;;;;;;;;;;;;;4978844;28;19992;-66
2022/05/15 00:50:29;;;;;;;;;;;;;;;;;;5007376;28;19921;-66
2022/05/15 00:52:57;;;;;;;;;;;;;;;;;;5008847;28;20024;-66
2022/05/15 00:55:35;;;;;;;;;;;;;;;;;;5005788;28;19917;-65
2022/05/15 00:58:04;;;;;;;;;;;;;;;;;;4998213;28;20331;-67
2022/05/15 01:00:31;;;;;;;;;;;;;;;;;;5009025;28;19921;-66
2022/05/15 01:03:17;;;;;;;;;;;;;;;;;;4986630;28;19917;-64
2022/05/15 01:05:55;;;;;;;;;;;;;;;;;;4981073;28;19914;-66
2022/05/15 01:08:27;;;;;;;;;;;;;;;;;;4992573;28;20360;-66
2022/05/15 01:10:54;;;;;;;;;;;;;;;;;;4992477;28;20402;-66
2022/05/15 01:13:22;;;;;;;;;;;;;;;;;;5004715;28;19925;-64
2022/05/15 01:15:48;;;;;;;;;;;;;;;;;;4983499;28;19917;-66
2022/05/15 01:18:22;;;;;;;;;;;;;;;;;;4977240;28;20399;-66
2022/05/15 01:20:52;;;;;;;;;;;;;;;;;;4992464;28;19925;-64
2022/05/15 01:23:17;;;;;;;;;;;;;;;;;;4981324;28;19917;-67
2022/05/15 01:25:43;;;;;;;;;;;;;;;;;;4994737;28;19923;-67
2022/05/15 01:28:12;;;;;;;;;;;;;;;;;;5005824;28;19913;-67
2022/05/15 01:30:41;;;;;;;;;;;;;;;;;;4991038;28;20681;-65
2022/05/15 01:33:07;;;;;;;;;;;;;;;;;;5001878;28;19925;-66
2022/05/15 01:35:32;;;;;;;;;;;;;;;;;;5004179;28;19913;-66
2022/05/15 01:38:01;;;;;;;;;;;;;;;;;;4984038;28;20296;-66
2022/05/15 01:40:26;;;;;;;;;;;;;;;;;;5003541;28;19924;-66
2022/05/15 01:42:52;;;;;;;;;;;;;;;;;;4981652;28;19964;-66
2022/05/15 01:45:17;;;;;;;;;;;;;;;;;;5010042;28;19918;-66
2022/05/15 01:47:43;;;;;;;;;;;;;;;;;;4986058;28;19914;-66
2022/05/15 01:50:10;;;;;;;;;;;;;;;;;;5000999;28;19920;-66
2022/05/15 01:52:36;;;;;;;;;;;;;;;;;;5008537;28;19917;-67
2022/05/15 01:55:02;;;;;;;;;;;;;;;;;;4991661;28;20020;-66
2022/05/15 01:57:29;;;;;;;;;;;;;;;;;;4978466;28;19920;-66
2022/05/15 01:59:54;;;;;;;;;;;;;;;;;;4981446;28;19913;-66
2022/05/15 02:02:20;;;;;;;;;;;;;;;;;;4989435;28;19913;-67
2022/05/15 02:04:46;;;;;;;;;;;;;;;;;;5009661;28;19921;-66
2022/05/15 02:07:11;;;;;;;;;;;;;;;;;;4983044;28;19995;-67
2022/05/15 02:09:37;;;;;;;;;;;;;;;;;;5007349;28;19920;-67
2022/05/15 02:12:03;;;;;;;;;;;;;;;;;;4992342;28;19921;-67
2022/05/15 02:14:29;;;;;;;;;;;;;;;;;;4986848;28;19913;-67
2022/05/15 02:16:54;;;;;;;;;;;;;;;;;;4983426;28;19936;-65
2022/05/15 02:19:20;;;;;;;;;;;;;;;;;;4992515;28;19972;-66
2022/05/15 02:21:47;;;;;;;;;;;;;;;;;;4992018;28;19913;-67
2022/05/15 02:24:13;;;;;;;;;;;;;;;;;;4988246;28;19918;-66
2022/05/15 02:26:38;;;;;;;;;;;;;;;;;;4995132;28;20428;-66
2022/05/15 02:29:05;;;;;;;;;;;;;;;;;;4980315;28;19920;-66
2022/05/15 02:31:31;;;;;;;;;;;;;;;;;;4999912;28;20554;-66
2022/05/15 02:33:58;;;;;;;;;;;;;;;;;;4979935;28;19917;-67
2022/05/15 02:36:24;;;;;;;;;;;;;;;;;;4974590;28;19940;-66
2022/05/15 02:38:50;;;;;;;;;;;;;;;;;;4994844;28;20388;-67
2022/05/15 02:41:15;;;;;;;;;;;;;;;;;;5003583;28;19913;-67
2022/05/15 02:43:42;;;;;;;;;;;;;;;;;;5007484;28;19920;-67
2022/05/15 02:46:07;;;;;;;;;;;;;;;;;;4986827;28;19945;-66
2022/05/15 02:51:17;;;;;;;;;;;;;;;;;;5007824;28;20008;-65
2022/05/15 02:53:43;;;;;;;;;;;;;;;;;;4989191;28;20003;-67
2022/05/15 02:56:16;;;;;;;;;;;;;;;;;;4995061;28;19964;-67
2022/05/15 02:58:41;;;;;;;;;;;;;;;;;;4997388;28;19920;-67
2022/05/15 03:01:07;;;;;;;;;;;;;;;;;;5004332;28;19913;-66
2022/05/15 03:03:33;;;;;;;;;;;;;;;;;;5002525;28;19918;-67
2022/05/15 03:05:58;;;;;;;;;;;;;;;;;;5001561;28;19965;-65
2022/05/15 03:08:24;;;;;;;;;;;;;;;;;;4995962;28;19952;-67
2022/05/15 03:10:50;;;;;;;;;;;;;;;;;;4990990;28;19953;-67
2022/05/15 03:13:16;;;;;;;;;;;;;;;;;;5007823;28;19956;-67
2022/05/15 03:15:41;;;;;;;;;;;;;;;;;;4990320;28;19913;-67
2022/05/15 03:18:07;;;;;;;;;;;;;;;;;;5000541;28;20372;-67
2022/05/15 03:20:32;;;;;;;;;;;;;;;;;;4990590;28;19913;-66
2022/05/15 03:22:59;;;;;;;;;;;;;;;;;;5005554;28;20011;-67
2022/05/15 03:25:26;;;;;;;;;;;;;;;;;;4998603;28;19913;-67
2022/05/15 03:27:52;;;;;;;;;;;;;;;;;;4990603;28;19914;-66
2022/05/15 03:30:18;;;;;;;;;;;;;;;;;;4986378;28;19924;-68
2022/05/15 03:32:43;;;;;;;;;;;;;;;;;;5025596;22;19921;-65
2022/05/15 03:35:09;;;;;;;;;;;;;;;;;;5063191;28;19916;-66
2022/05/15 03:37:35;;;;;;;;;;;;;;;;;;5037916;28;19913;-66
2022/05/15 03:40:00;;;;;;;;;;;;;;;;;;5046222;28;19913;-66
2022/05/15 03:42:26;;;;;;;;;;;;;;;;;;5040881;28;19958;-66
2022/05/15 03:44:52;;;;;;;;;;;;;;;;;;5029205;28;19913;-66
2022/05/15 03:47:18;;;;;;;;;;;;;;;;;;5047664;28;20011;-66
2022/05/15 03:49:44;;;;;;;;;;;;;;;;;;5047759;28;19999;-66
2022/05/15 03:52:10;;;;;;;;;;;;;;;;;;5044496;28;19940;-66
2022/05/15 03:54:35;;;;;;;;;;;;;;;;;;5027093;28;19961;-66
2022/05/15 03:57:01;;;;;;;;;;;;;;;;;;5046606;28;19919;-63
2022/05/15 03:59:31;;;;;;;;;;;;;;;;;;5028603;28;19913;-59
2022/05/15 04:01:58;;;;;;;;;;;;;;;;;;5044032;28;19919;-62
2022/05/15 04:04:27;;;;;;;;;;;;;;;;;;5045320;28;19917;-62
2022/05/15 04:06:52;;;;;;;;;;;;;;;;;;5028602;28;19923;-63
2022/05/15 04:09:19;;;;;;;;;;;;;;;;;;5028947;28;19912;-60
2022/05/15 04:11:44;;;;;;;;;;;;;;;;;;5043912;28;19917;-61
2022/05/15 04:14:10;;;;;;;;;;;;;;;;;;5027419;28;20013;-60
2022/05/15 04:16:36;;;;;;;;;;;;;;;;;;5027676;28;20328;-60
2022/05/15 04:19:02;;;;;;;;;;;;;;;;;;5028349;28;19913;-63
2022/05/15 04:21:30;;;;;;;;;;;;;;;;;;5026083;28;19913;-61
2022/05/15 04:23:55;;;;;;;;;;;;;;;;;;5027605;28;20000;-63
2022/05/15 04:26:21;;;;;;;;;;;;;;;;;;5045758;28;20003;-63
2022/05/15 04:28:46;;;;;;;;;;;;;;;;;;5026441;28;19913;-63
2022/05/15 04:31:12;;;;;;;;;;;;;;;;;;5026493;28;20043;-62
2022/05/15 04:33:38;;;;;;;;;;;;;;;;;;5028476;28;19921;-61
2022/05/15 04:36:03;;;;;;;;;;;;;;;;;;5046297;28;20002;-62
2022/05/15 04:38:29;;;;;;;;;;;;;;;;;;5044772;28;19913;-60
2022/05/15 04:40:55;;;;;;;;;;;;;;;;;;5046962;28;20431;-61
2022/05/15 04:43:20;;;;;;;;;;;;;;;;;;5049225;28;19916;-63
2022/05/15 04:45:46;;;;;;;;;;;;;;;;;;5029128;28;19913;-62
2022/05/15 04:48:11;;;;;;;;;;;;;;;;;;5047711;28;19935;-63
2022/05/15 04:50:37;;;;;;;;;;;;;;;;;;5047066;28;19913;-60
2022/05/15 04:53:04;;;;;;;;;;;;;;;;;;5048074;28;19982;-62
2022/05/15 04:55:29;;;;;;;;;;;;;;;;;;5047699;28;19920;-62
2022/05/15 04:57:55;;;;;;;;;;;;;;;;;;5049150;28;19935;-63
2022/05/15 05:00:20;;;;;;;;;;;;;;;;;;5047766;28;19920;-62
2022/05/15 05:02:46;;;;;;;;;;;;;;;;;;5048723;28;19948;-63
2022/05/15 05:05:12;;;;;;;;;;;;;;;;;;5049459;28;19912;-63
2022/05/15 05:07:37;;;;;;;;;;;;;;;;;;5049755;28;19916;-63
2022/05/15 05:10:03;;;;;;;;;;;;;;;;;;5046969;28;20545;-62
2022/05/15 05:12:29;;;;;;;;;;;;;;;;;;5049064;28;20327;-60
2022/05/15 05:14:54;;;;;;;;;;;;;;;;;;5049305;28;20418;-62
2022/05/15 05:17:20;;;;;;;;;;;;;;;;;;5049631;28;20222;-63
2022/05/15 05:19:45;;;;;;;;;;;;;;;;;;5046585;28;19939;-61
2022/05/15 05:22:11;;;;;;;;;;;;;;;;;;5049117;28;19913;-60
2022/05/15 05:24:37;;;;;;;;;;;;;;;;;;5048240;28;20332;-61
2022/05/15 05:27:02;;;;;;;;;;;;;;;;;;5046425;28;19920;-61
2022/05/15 05:29:28;;;;;;;;;;;;;;;;;;5048986;28;19940;-59
2022/05/15 05:31:53;;;;;;;;;;;;;;;;;;5049266;28;20046;-59
2022/05/15 05:34:19;;;;;;;;;;;;;;;;;;5046970;28;20268;-60
2022/05/15 05:36:45;;;;;;;;;;;;;;;;;;5047561;28;20284;-60
2022/05/15 05:39:11;;;;;;;;;;;;;;;;;;5040589;28;19923;-60
2022/05/15 05:41:37;;;;;;;;;;;;;;;;;;5044069;28;20512;-60
2022/05/15 05:44:03;;;;;;;;;;;;;;;;;;5040697;28;20372;-61
2022/05/15 05:46:28;;;;;;;;;;;;;;;;;;5038126;28;19913;-59
2022/05/15 05:48:55;;;;;;;;;;;;;;;;;;5042781;28;19912;-60
2022/05/15 05:51:21;;;;;;;;;;;;;;;;;;5048649;28;19920;-59
2022/05/15 05:53:46;;;;;;;;;;;;;;;;;;5047901;28;19982;-61
2022/05/15 05:56:12;;;;;;;;;;;;;;;;;;5045878;28;19913;-61
2022/05/15 05:58:38;;;;;;;;;;;;;;;;;;5048415;28;19912;-61
2022/05/15 06:01:04;;;;;;;;;;;;;;;;;;5049197;28;19920;-61
2022/05/15 06:06:15;;;;;;;;;;;;;;;;;;5045055;28;19921;-61
2022/05/15 06:08:42;;;;;;;;;;;;;;;;;;5046082;28;19923;-61
2022/05/15 06:11:08;;;;;;;;;;;;;;;;;;5048578;28;19966;-61
2022/05/15 06:13:34;;;;;;;;;;;;;;;;;;5047895;28;19920;-61
2022/05/15 06:16:00;;;;;;;;;;;;;;;;;;5044349;28;19980;-61
2022/05/15 06:18:26;;;;;;;;;;;;;;;;;;5045253;28;20027;-61
2022/05/15 06:20:52;;;;;;;;;;;;;;;;;;5047784;28;19947;-60
2022/05/15 06:23:18;;;;;;;;;;;;;;;;;;5047583;28;20563;-61
2022/05/15 06:25:44;;;;;;;;;;;;;;;;;;5043947;28;19923;-60
2022/05/15 06:28:09;;;;;;;;;;;;;;;;;;5047319;28;19921;-59
2022/05/15 06:30:36;;;;;;;;;;;;;;;;;;5048039;28;19913;-61
2022/05/15 06:33:02;;;;;;;;;;;;;;;;;;5047978;28;19917;-61
2022/05/15 06:35:28;;;;;;;;;;;;;;;;;;5045517;28;19919;-61
2022/05/15 06:37:53;;;;;;;;;;;;;;;;;;5047773;28;20380;-61
2022/05/15 06:40:19;;;;;;;;;;;;;;;;;;5047915;28;19913;-61
2022/05/15 06:42:45;;;;;;;;;;;;;;;;;;5045736;28;20311;-62
2022/05/15 06:45:11;;;;;;;;;;;;;;;;;;5045075;28;19917;-61
2022/05/15 06:47:36;;;;;;;;;;;;;;;;;;5047853;28;19940;-61
2022/05/15 06:50:03;;;;;;;;;;;;;;;;;;5047382;28;20371;-61
2022/05/15 06:52:29;;;;;;;;;;;;;;;;;;5045936;28;20423;-62
2022/05/15 06:54:54;;;;;;;;;;;;;;;;;;5046116;28;19952;-60
2022/05/15 06:57:29;;;;;;;;;;;;;;;;;;5047741;28;19916;-61
2022/05/15 07:00:15;;;;;;;;;;;;;;;;;;5046202;28;19913;-60
2022/05/15 07:02:41;;;;;;;;;;;;;;;;;;5047003;28;20347;-61
2022/05/15 07:05:11;;;;;;;;;;;;;;;;;;5047340;28;19921;-62
2022/05/15 07:07:38;;;;;;;;;;;;;;;;;;5043519;28;19924;-61
2022/05/15 07:10:04;;;;;;;;;;;;;;;;;;5047401;28;19923;-60
2022/05/15 07:12:29;;;;;;;;;;;;;;;;;;5013200;28;19924;-61
2022/05/15 07:14:55;;;;;;;;;;;;;;;;;;5047206;28;20322;-61
2022/05/15 07:17:20;;;;;;;;;;;;;;;;;;5043957;28;19956;-61
2022/05/15 07:19:46;;;;;;;;;;;;;;;;;;5047741;28;20007;-61
2022/05/15 07:22:11;;;;;;;;;;;;;;;;;;5047770;28;20378;-61
2022/05/15 07:24:38;;;;;;;;;;;;;;;;;;5047134;28;20270;-60
2022/05/15 07:27:05;;;;;;;;;;;;;;;;;;5042287;28;19932;-60
2022/05/15 07:29:30;;;;;;;;;;;;;;;;;;5046125;28;20443;-61
2022/05/15 07:31:57;;;;;;;;;;;;;;;;;;5047568;28;19939;-61
2022/05/15 07:34:23;;;;;;;;;;;;;;;;;;5039441;28;19970;-61
2022/05/15 07:36:50;;;;;;;;;;;;;;;;;;5047550;28;19928;-58
2022/05/15 07:39:16;;;;;;;;;;;;;;;;;;5047829;28;19913;-61
2022/05/15 07:41:42;;;;;;;;;;;;;;;;;;5047442;28;20387;-60
2022/05/15 07:44:07;;;;;;;;;;;;;;;;;;5043057;28;19919;-61
2022/05/15 07:46:33;;;;;;;;;;;;;;;;;;5047124;28;19921;-62
2022/05/15 07:48:59;;;;;;;;;;;;;;;;;;5047484;28;19995;-61
2022/05/15 07:51:24;;;;;;;;;;;;;;;;;;5047373;28;20398;-61
2022/05/15 07:53:50;;;;;;;;;;;;;;;;;;5044447;28;19924;-62
2022/05/15 07:56:15;;;;;;;;;;;;;;;;;;5046396;28;19957;-60
2022/05/15 07:58:41;;;;;;;;;;;;;;;;;;5047412;28;19948;-61
2022/05/15 08:01:07;;;;;;;;;;;;;;;;;;5047066;28;20326;-61
2022/05/15 08:03:37;;;;;;;;;;;;;;;;;;5044062;28;19917;-61
2022/05/15 08:08:47;;;;;;;;;;;;;;;;;;5051133;28;19913;-62
2022/05/15 08:11:13;;;;;;;;;;;;;;;;;;5048400;28;19942;-61
2022/05/15 08:13:39;;;;;;;;;;;;;;;;;;5050907;28;19970;-61
2022/05/15 08:16:04;;;;;;;;;;;;;;;;;;5050751;28;19920;-62
2022/05/15 08:23:59;;;;;;;;;;;;;;;;;;5045522;28;19928;-62
2022/05/15 08:26:26;;;;;;;;;;;;;;;;;;5048867;28;19924;-61
2022/05/15 08:28:52;;;;;;;;;;;;;;;;;;5048973;28;19956;-63
2022/05/15 08:31:18;;;;;;;;;;;;;;;;;;5047291;28;19947;-61
2022/05/15 08:33:44;;;;;;;;;;;;;;;;;;5048499;28;19927;-61
2022/05/15 08:36:10;;;;;;;;;;;;;;;;;;5049422;28;20003;-62
2022/05/15 08:38:36;;;;;;;;;;;;;;;;;;5049471;28;19917;-60
2022/05/15 08:41:16;;;;;;;;;;;;;;;;;;5046484;28;19917;-62
2022/05/15 08:43:57;;;;;;;;;;;;;;;;;;5048741;28;20383;-61
2022/05/15 08:46:28;;;;;;;;;;;;;;;;;;5049558;28;19916;-61
2022/05/15 08:48:57;;;;;;;;;;;;;;;;;;5047121;28;19948;-62
2022/05/15 08:51:22;;;;;;;;;;;;;;;;;;5048768;28;19952;-62
2022/05/15 08:53:49;;;;;;;;;;;;;;;;;;5047949;28;19960;-61
2022/05/15 08:56:14;;;;;;;;;;;;;;;;;;5048354;28;19959;-60
2022/05/15 08:58:45;;;;;;;;;;;;;;;;;;5045698;28;19956;-61
2022/05/15 09:01:14;;;;;;;;;;;;;;;;;;5044911;28;20459;-60
2022/05/15 09:03:40;;;;;;;;;;;;;;;;;;5039923;28;19920;-61
2022/05/15 09:06:11;;;;;;;;;;;;;;;;;;5028536;28;20695;-62
2022/05/15 09:08:55;;;;;;;;;;;;;;;;;;5041714;28;19917;-62
2022/05/15 09:11:33;;;;;;;;;;;;;;;;;;5045217;28;19917;-61
2022/05/15 09:14:07;;;;;;;;;;;;;;;;;;5048200;28;19966;-62
2022/05/15 09:16:34;;;;;;;;;;;;;;;;;;5046319;28;19917;-61
2022/05/15 09:19:06;;;;;;;;;;;;;;;;;;5047347;28;20395;-62
2022/05/15 09:21:32;;;;;;;;;;;;;;;;;;5046241;28;19916;-62
2022/05/15 09:24:02;;;;;;;;;;;;;;;;;;5043553;28;19913;-61
2022/05/15 09:26:29;;;;;;;;;;;;;;;;;;5043031;28;19924;-61
2022/05/15 09:29:00;;;;;;;;;;;;;;;;;;5045146;28;19912;-62
2022/05/15 09:31:28;;;;;;;;;;;;;;;;;;5044639;28;19917;-62
2022/05/15 09:36:43;;;;;;;;;;;;;;;;;;5026703;28;19921;-64
2022/05/15 09:39:10;;;;;;;;;;;;;;;;;;5026872;28;19925;-67
2022/05/15 09:44:23;;;;;;;;;;;;;;;;;;5008248;28;19924;-67
2022/05/15 09:46:55;;;;;;;;;;;;;;;;;;5001904;28;20388;-67
2022/05/15 09:49:24;;;;;;;;;;;;;;;;;;5000624;28;20020;-66
2022/05/15 09:51:53;;;;;;;;;;;;;;;;;;5007394;28;19921;-68
2022/05/15 09:54:34;;;;;;;;;;;;;;;;;;5005553;28;19928;-67
2022/05/15 09:57:14;;;;;;;;;;;;;;;;;;5007480;28;19917;-67
2022/05/15 09:59:40;;;;;;;;;;;;;;;;;;5005582;28;19921;-68
2022/05/15 10:02:15;;;;;;;;;;;;;;;;;;5008527;28;20299;-67
2022/05/15 10:04:41;;;;;;;;;;;;;;;;;;5007104;28;19917;-68
2022/05/15 10:07:09;;;;;;;;;;;;;;;;;;5006086;28;20384;-67
2022/05/15 10:09:37;;;;;;;;;;;;;;;;;;5004973;28;19914;-66
2022/05/15 10:12:21;;;;;;;;;;;;;;;;;;5005869;28;19917;-67
2022/05/15 10:14:49;;;;;;;;;;;;;;;;;;5006119;28;20016;-67
2022/05/15 10:17:14;;;;;;;;;;;;;;;;;;5002153;28;19917;-67
2022/05/15 10:19:43;;;;;;;;;;;;;;;;;;4992755;28;20042;-66
2022/05/15 10:22:21;;;;;;;;;;;;;;;;;;4992988;28;19921;-66
2022/05/15 10:24:47;;;;;;;;;;;;;;;;;;5003035;28;19927;-66
2022/05/15 10:27:18;;;;;;;;;;;;;;;;;;5004610;28;20414;-67
2022/05/15 10:29:44;;;;;;;;;;;;;;;;;;5000244;28;19982;-66
2022/05/15 10:32:18;;;;;;;;;;;;;;;;;;5003556;28;20317;-66
2022/05/15 10:34:44;;;;;;;;;;;;;;;;;;5003802;28;19917;-66
2022/05/15 10:37:34;;;;;;;;;;;;;;;;;;5002565;28;19917;-67
2022/05/15 10:40:19;;;;;;;;;;;;;;;;;;5000573;28;19917;-68
2022/05/15 10:42:47;;;;;;;;;;;;;;;;;;4997362;28;20388;-66
2022/05/15 10:45:21;;;;;;;;;;;;;;;;;;5004947;28;19970;-66
2022/05/15 10:48:04;;;;;;;;;;;;;;;;;;5005932;28;19924;-66
2022/05/15 10:50:48;;;;;;;;;;;;;;;;;;5005588;28;19996;-67
2022/05/15 10:59:04;;;;;;;;;;;;;;;;;;5001596;28;20048;-67
2022/05/15 11:01:36;;;;;;;;;;;;;;;;;;5002172;28;19917;-66
2022/05/15 11:04:02;;;;;;;;;;;;;;;;;;5005505;28;20011;-66
2022/05/15 11:06:46;;;;;;;;;;;;;;;;;;4988131;28;20325;-68
2022/05/15 11:09:24;;;;;;;;;;;;;;;;;;5003669;28;20596;-67
2022/05/15 11:11:55;;;;;;;;;;;;;;;;;;5006541;28;20020;-66
2022/05/15 11:23:19;;;;;;;11.73;10.93;;;;;;;;;;5136706;27;20333;-66
2022/05/15 11:25:54;;;;;;;11.67;10.87;;;;;;;;;;5117780;27;20032;-68
2022/05/15 11:28:30;;;;;;;11.10;10.38;;;;;;;;;;5122377;28;20307;-67
2022/05/15 11:31:24;;;;;;;11.23;10.43;;;;;;;;;;5123776;28;20126;-67
2022/05/15 11:33:51;;;;;;;11.30;10.45;;;;;;;;;;5117732;27;20038;-67
2022/05/15 11:36:35;;;;;;;11.48;10.55;;;;;;;;;;5123084;28;20066;-67
2022/05/15 11:39:13;;;;;;;11.60;10.70;;;;;;;;;;5124043;28;20039;-67
2022/05/15 11:41:40;;;;;;;11.50;10.70;;;;;;;;;;5122010;27;20571;-67
2022/05/15 11:44:18;;;;;;;11.57;10.57;;;;;;;;;;5123137;27;20119;-67
2022/05/15 11:46:50;;;;;;;10.82;10.13;;;;;;;;;;5099321;28;20108;-67
2022/05/15 11:49:34;;;;;;;10.93;10.15;;;;;;;;;;5116216;28;20035;-66
2022/05/15 11:52:06;;;;;;;11.73;10.75;;;;;;;;;;5122422;28;20481;-66
2022/05/15 11:54:31;;;;;;;5.53;5.07;;;;;;;;;;5123899;27;20036;-67
2022/05/15 11:56:58;;;;;;;5.47;4.63;;;;;;;;;;5123531;28;20135;-68
2022/05/15 11:59:26;;;;;;;5.45;4.75;;;;;;;;;;5121350;28;20046;-66
2022/05/15 12:01:55;;;;;;;4.78;4.38;;;;;;;;;;5121008;27;20039;-66
2022/05/15 12:04:51;;;;;;;6.00;4.80;;;;;;;;;;5121406;27;20033;-66
2022/05/15 12:07:46;;;;;;;5.65;5.07;;;;;;;;;;5122392;27;20046;-66
2022/05/15 12:10:39;;;;;;;4.70;4.40;;;;;;;;;;5120672;28;20027;-67
2022/05/15 12:13:04;;;;;;;5.00;4.70;;;;;;;;;;5116315;27;20043;-67
2022/05/15 12:15:46;;;;;;;5.30;4.80;;;;;;;;;;5121289;28;20080;-67
2022/05/15 12:18:22;;;;;;;4.68;4.18;;;;;;;;;;5125495;27;20040;-67
2022/05/15 12:20:51;;;;;;;5.22;4.82;;;;;;;;;;5123216;28;20054;-67
2022/05/15 12:23:20;;;;;;;5.25;4.80;;;;;;;;;;5119665;27;20391;-69
2022/05/15 12:26:00;;;;;;;5.65;5.15;;;;;;;;;;5119823;27;20270;-70
2022/05/15 12:28:53;;;;;;;6.38;5.20;;;;;;;;;;5125273;28;20031;-70
2022/05/15 12:31:24;;;;;;;5.57;5.00;;;;;;;;;;5123379;28;20031;-68
2022/05/15 12:33:50;;;;;;;5.40;4.90;;;;;;;;;;5112028;28;20050;-68
2022/05/15 12:36:27;;;;;;;5.43;5.03;;;;;;;;;;5110833;28;20114;-68
2022/05/15 12:38:54;;;;;;;6.07;4.95;;;;;;;;;;5110831;28;20359;-68
2022/05/15 12:41:25;;;;;;;5.43;4.90;;;;;;;;;;5108215;28;20043;-68
2022/05/15 12:43:51;;;;;;;5.25;4.85;;;;;;;;;;5091406;28;20626;-67
2022/05/15 12:46:29;;;;;;;6.22;5.10;;;;;;;;;;5109496;28;20036;-67
2022/05/15 12:48:55;;;;;;;5.40;4.90;;;;;;;;;;5107725;28;20512;-67
2022/05/15 12:51:33;;;;;;;6.57;4.78;;;;;;;;;;5110014;28;20118;-67
2022/05/15 12:54:01;;;;;;;5.35;4.95;;;;;;;;;;5109062;28;20040;-68
2022/05/15 12:56:31;;;;;;;5.15;4.75;;;;;;;;;;5106605;28;20031;-69
2022/05/15 12:59:17;;;;;;;5.30;4.82;;;;;;;;;;5106391;28;20039;-69
2022/05/15 13:01:45;;;;;;;6.00;4.78;;;;;;;;;;5100899;28;20107;-69
2022/05/15 13:04:18;;;;;;;7.77;5.20;;;;;;;;;;5105158;28;20059;-69
2022/05/15 13:06:52;;;;;;;5.10;4.60;;;;;;;;;;5093870;28;20034;-68
2022/05/15 13:09:23;;;;;;;5.40;4.97;;;;;;;;;;5109282;28;20035;-68
2022/05/15 13:11:54;;;;;;;5.47;4.88;;;;;;;;;;5107005;28;20053;-69
2022/05/15 13:14:20;;;;;;;5.20;4.50;;;;;;;;;;5108460;28;20035;-68
2022/05/15 13:16:49;;;;;;;6.28;4.80;;;;;;;;;;5091884;28;20502;-68
2022/05/15 13:19:20;;;;;;;5.38;4.93;;;;;;;;;;5109366;28;20040;-69
2022/05/15 13:21:50;;;;;;;5.25;4.80;;;;;;;;;;5106249;28;20109;-68
2022/05/15 13:24:17;;;;;;;5.80;5.20;;;;;;;;;;5108056;27;20067;-68
2022/05/15 13:26:46;;;;;;;5.70;4.40;;;;;;;;;;5116651;27;20055;-70
2022/05/15 13:29:18;;;;;;;6.00;4.85;;;;;;;;;;5104659;28;20030;-68
2022/05/15 13:31:46;;;;;;;5.53;4.80;;;;;;;;;;5108637;28;20031;-69
2022/05/15 13:34:23;;;;;;;5.60;4.75;;;;;;;;;;5106384;28;20549;-69
2022/05/15 13:36:55;;;;;;;5.28;4.78;;;;;;;;;;5109413;27;20039;-68
2022/05/15 13:45:07;;;;;;;8.43;5.15;;;;;;;;;;5105780;28;20039;-69
2022/05/15 13:47:32;;;;;;;5.18;4.68;;;;;;;;;;5105752;28;20028;-69
2022/05/15 13:49:59;;;;;;;5.15;4.70;;;;;;;;;;5109992;28;20398;-69
2022/05/15 13:52:34;;;;;;;5.40;4.90;;;;;;;;;;5110659;28;20039;-69
2022/05/15 13:55:14;;;;;;;4.80;4.40;;;;;;;;;;5108190;28;20093;-69
2022/05/15 13:57:54;;;;;;;4.75;4.25;;;;;;;;;;5107966;28;20043;-70
2022/05/15 14:00:32;;;;;;;4.55;4.25;;;;;;;;;;5109614;28;20027;-69
2022/05/15 14:03:05;;;;;;;5.05;4.28;;;;;;;;;;5109452;28;20031;-69
2022/05/15 14:05:39;;;;;;;5.97;4.47;;;;;;;;;;5108220;28;20023;-70
2022/05/15 14:08:18;;;;;;;4.68;4.25;;;;;;;;;;5108054;28;20127;-70
2022/05/15 14:10:59;;;;;;;4.72;4.28;;;;;;;;;;5108915;28;20031;-69
2022/05/15 14:13:29;;;;;;;6.57;4.57;;;;;;;;;;5107862;28;20058;-69
2022/05/15 14:15:56;;;;;;;5.35;4.30;;;;;;;;;;5108319;27;20072;-69
2022/05/15 14:18:35;;;;;;;6.03;4.55;;;;;;;;;;5109265;28;20424;-72
2022/05/15 14:21:14;;;;;;;5.93;4.55;;;;;;;;;;5109172;28;20096;-69
2022/05/15 14:23:41;;;;;;;6.15;4.20;;;;;;;;;;5111815;27;20039;-69
2022/05/15 14:26:08;;;;;;;5.10;4.57;;;;;;;;;;5107001;28;20157;-69
2022/05/15 14:28:34;;;;;;;4.53;4.23;;;;;;;;;;5115411;28;20043;-69
2022/05/15 14:31:01;;;;;;;5.82;4.70;;;;;;;;;;5112768;28;20394;-69
2022/05/15 14:33:28;;;;;;;4.82;4.43;;;;;;;;;;5100023;27;20036;-68
2022/05/15 14:36:10;;;;;;;4.72;4.32;;;;;;;;;;5090184;28;20039;-67
2022/05/15 14:38:35;;;;;;;6.38;4.63;;;;;;;;;;5082297;28;20046;-67
2022/05/15 14:41:02;;;;;;;5.13;4.60;;;;;;;;;;5089738;28;20035;-67
2022/05/15 14:43:27;;;;;;;5.80;4.80;;;;;;;;;;5100353;28;20039;-67
2022/05/15 14:46:00;;;;;;;5.38;4.80;;;;;;;;;;5074439;28;20039;-67
2022/05/15 14:48:28;;;;;;;5.22;4.80;;;;;;;;;;5087668;28;20034;-67
2022/05/15 14:50:55;;;;;;;5.63;4.47;;;;;;;;;;5094424;28;20055;-67
2022/05/15 14:53:23;;;;;;;4.75;4.25;;;;;;;;;;5094988;28;20024;-67
2022/05/15 14:56:08;;;;;;;5.30;4.80;;;;;;;;;;5087294;28;20028;-66
2022/05/15 14:58:36;;;;;;;5.25;4.80;;;;;;;;;;5078366;28;20048;-67
2022/05/15 15:01:02;;;;;;;;;;;;;;;;;;5085362;28;20395;-67
2022/05/15 15:03:28;;;;;;;6.75;4.70;;;;;;;;;;5094808;28;20375;-67
2022/05/15 15:05:55;;;;;;;5.22;4.82;;;;;;;;;;5097204;28;20077;-67
2022/05/15 15:08:23;;;;;;;5.10;4.70;;;;;;;;;;5083673;28;20051;-68
2022/05/15 15:11:05;;;;;;;5.68;5.18;;;;;;;;;;5087904;28;20038;-67
2022/05/15 15:13:31;;;;;;;7.28;4.97;;;;;;;;;;5086085;28;20043;-67
2022/05/15 15:15:56;;;;;;;6.53;4.97;;;;;;;;;;5082726;28;20041;-67
2022/05/15 15:18:23;;;;;;;5.22;4.72;;;;;;;;;;5088119;28;20493;-67
2022/05/15 15:20:48;;;;;;;4.65;4.25;;;;;;;;;;5089052;28;20032;-67
2022/05/15 15:23:14;;;;;;;4.82;4.40;;;;;;;;;;5084068;28;20039;-67
2022/05/15 15:25:39;;;;;;;6.40;4.60;;;;;;;;;;5080578;28;20124;-67
2022/05/15 15:28:05;;;;;;;5.35;4.70;;;;;;;;;;5092519;28;20040;-67
2022/05/15 15:30:31;;;;;;;5.05;4.55;;;;;;;;;;5093858;28;20476;-67
2022/05/15 15:32:59;;;;;;;5.32;4.60;;;;;;;;;;5102372;22;20041;-68
2022/05/15 15:35:26;;;;;;;5.00;4.60;;;;;;;;;;5053278;28;20552;-68
2022/05/15 15:40:35;;;;;;;5.85;4.75;;;;;;;;;;5041632;28;20075;-66
2022/05/15 15:43:01;;;;;;;4.70;4.40;;;;;;;;;;5039001;28;20033;-67
2022/05/15 15:45:27;;;;;;;5.63;4.32;;;;;;;;;;5039879;28;20040;-67
2022/05/15 15:47:52;;;;;;;5.07;4.35;;;;;;;;;;5041465;28;20110;-65
2022/05/15 15:50:18;;;;;;;4.72;4.20;;;;;;;;;;5047612;28;20725;-65
2022/05/15 15:52:44;;;;;;;4.82;4.30;;;;;;;;;;5032007;28;20029;-65
2022/05/15 15:55:11;;;;;;;4.82;4.40;;;;;;;;;;5034483;28;20059;-65
2022/05/15 15:57:37;;;;;;;7.22;4.30;;;;;;;;;;5039823;28;20035;-65
2022/05/15 16:00:05;;;;;;;5.10;4.40;;;;;;;;;;5041351;28;20064;-65
2022/05/15 16:02:32;;;;;;;5.00;4.60;;;;;;;;;;5042060;28;20060;-66
2022/05/15 16:04:58;;;;;;;5.28;4.80;;;;;;;;;;5033525;28;20042;-65
2022/05/15 16:07:23;;;;;;;5.15;4.15;;;;;;;;;;5034816;28;20037;-66
2022/05/15 16:09:50;;;;;;;4.70;4.32;;;;;;;;;;5040747;28;20037;-65
2022/05/15 16:12:15;;;;;;;4.75;4.35;;;;;;;;;;5036840;28;20025;-65
2022/05/15 16:14:41;;;;;;;5.75;4.70;;;;;;;;;;5036556;28;20059;-67
2022/05/15 16:17:08;;;;;;;5.07;4.63;;;;;;;;;;5043918;28;20101;-67
2022/05/15 16:19:34;;;;;;;6.80;4.68;;;;;;;;;;5035426;28;20029;-67
2022/05/15 16:22:02;;;;;;;4.75;4.35;;;;;;;;;;5042879;28;20045;-66
2022/05/15 16:24:31;;;;;;;6.70;4.25;;;;;;;;;;5042984;28;20632;-66
2022/05/15 16:27:05;;;;;;;5.05;4.55;;;;;;;;;;5041774;28;20041;-67
2022/05/15 16:29:33;;;;;;;4.80;4.40;;;;;;;;;;5042971;28;20056;-67
2022/05/15 16:32:00;;;;;;;6.35;4.50;;;;;;;;;;5046260;28;20025;-67
2022/05/15 16:34:25;;;;;;;5.20;4.70;;;;;;;;;;5038278;28;20073;-67
2022/05/15 16:36:51;;;;;;;7.32;4.82;;;;;;;;;;5037839;28;20064;-67
2022/05/15 16:39:17;;;;;;;5.78;4.60;;;;;;;;;;5041394;28;20033;-66
2022/05/15 16:41:43;;;;;;;5.47;4.70;;;;;;;;;;5044835;28;20032;-67
2022/05/15 16:44:10;;;;;;;4.60;4.25;;;;;;;;;;5039455;28;20040;-67
2022/05/15 16:46:36;;;;;;;4.90;4.47;;;;;;;;;;5044392;28;20036;-67
2022/05/15 16:49:02;;;;;;;5.07;4.53;;;;;;;;;;5046678;28;20037;-66
2022/05/15 16:51:28;;;;;;;5.10;4.65;;;;;;;;;;5039077;28;20123;-66
2022/05/15 16:53:54;;;;;;;6.53;4.72;;;;;;;;;;5039764;28;20103;-67